Time,TemperatureF,DewpointF,PressureIn,WindDirection,WindDirectionDegrees,WindSpeedMPH,WindSpeedGustMPH,Humidity,HourlyPrecipIn,Conditions,Clouds,dailyrainin,SoftwareType,DateUTC
2013-03-12 00:04:00,54.9,41.7,29.99,WSW,247,0.0,-999.0,61,-99.99,,,0.00,Acu-Link.com,2013-03-12 07:04:00,
2013-03-12 00:19:00,55.2,42.4,29.98,West,270,2.7,-999.0,62,-99.99,,,0.00,Acu-Link.com,2013-03-12 07:19:00,
2013-03-12 00:34:00,54.5,42.2,29.99,West,270,2.2,-999.0,63,-99.99,,,0.00,Acu-Link.com,2013-03-12 07:34:00,
2013-03-12 00:50:00,54.0,42.5,29.99,SW,225,0.0,-999.0,65,-99.99,,,0.00,Acu-Link.com,2013-03-12 07:50:00,
2013-03-12 01:05:00,53.8,43.1,29.99,SE,135,0.0,-999.0,67,-99.99,,,0.00,Acu-Link.com,2013-03-12 08:05:00,
2013-03-12 01:20:00,53.2,43.7,29.98,WSW,247,0.0,-999.0,70,-99.99,,,0.00,Acu-Link.com,2013-03-12 08:20:00,
2013-03-12 01:35:00,53.2,43.7,29.99,SW,225,0.0,-999.0,70,-99.99,,,0.00,Acu-Link.com,2013-03-12 08:35:00,
2013-03-12 01:50:00,53.1,43.6,29.98,SSW,202,0.0,-999.0,70,-99.99,,,0.00,Acu-Link.com,2013-03-12 08:50:00,
2013-03-12 02:05:00,52.7,43.6,29.98,NE,45,3.2,-999.0,71,-99.99,,,0.00,Acu-Link.com,2013-03-12 09:05:00,
2013-03-12 02:20:00,52.7,42.8,29.98,NE,45,4.2,-999.0,69,-99.99,,,0.00,Acu-Link.com,2013-03-12 09:20:00,
2013-03-12 02:36:00,52.0,42.9,29.98,NE,45,0.0,-999.0,71,-99.99,,,0.00,Acu-Link.com,2013-03-12 09:36:00,
2013-03-12 02:51:00,51.8,42.7,29.98,East,90,0.0,-999.0,71,-99.99,,,0.00,Acu-Link.com,2013-03-12 09:51:00,
2013-03-12 03:06:00,52.0,43.6,29.98,West,270,3.7,-999.0,73,-99.99,,,0.00,Acu-Link.com,2013-03-12 10:06:00,
2013-03-12 03:21:00,52.0,43.6,29.97,West,270,0.0,-999.0,73,-99.99,,,0.00,Acu-Link.com,2013-03-12 10:21:00,
2013-03-12 03:37:00,52.3,43.9,29.97,West,270,0.0,-999.0,73,-99.99,,,0.00,Acu-Link.com,2013-03-12 10:37:00,
2013-03-12 03:52:00,52.3,43.5,29.96,WNW,292,3.7,-999.0,72,-99.99,,,0.00,Acu-Link.com,2013-03-12 10:52:00,
2013-03-12 04:07:00,52.2,43.8,29.96,West,270,2.2,-999.0,73,-99.99,,,0.00,Acu-Link.com,2013-03-12 11:07:00,
2013-03-12 04:22:00,51.8,43.8,29.96,West,270,2.7,-999.0,74,-99.99,,,0.00,Acu-Link.com,2013-03-12 11:22:00,
2013-03-12 04:38:00,51.6,43.9,29.96,West,270,0.0,-999.0,75,-99.99,,,0.00,Acu-Link.com,2013-03-12 11:38:00,
2013-03-12 04:53:00,51.3,43.6,29.97,West,270,0.0,-999.0,75,-99.99,,,0.00,Acu-Link.com,2013-03-12 11:53:00,
2013-03-12 05:08:00,51.4,43.7,29.97,NE,45,0.0,-999.0,75,-99.99,,,0.00,Acu-Link.com,2013-03-12 12:08:00,
2013-03-12 05:23:00,51.8,43.8,29.97,NNE,22,0.0,-999.0,74,-99.99,,,0.00,Acu-Link.com,2013-03-12 12:23:00,
2013-03-12 05:38:00,50.9,42.9,29.97,ENE,67,0.0,-999.0,74,-99.99,,,0.00,Acu-Link.com,2013-03-12 12:38:00,
2013-03-12 05:54:00,50.7,43.1,29.97,WSW,247,0.0,-999.0,75,-99.99,,,0.00,Acu-Link.com,2013-03-12 12:54:00,
2013-03-12 06:09:00,50.2,43.3,29.97,NE,45,0.0,-999.0,77,-99.99,,,0.00,Acu-Link.com,2013-03-12 13:09:00,
2013-03-12 06:24:00,50.7,43.4,29.97,NE,45,2.7,-999.0,76,-99.99,,,0.00,Acu-Link.com,2013-03-12 13:24:00,
2013-03-12 06:39:00,50.0,43.1,29.97,SW,225,0.0,-999.0,77,-99.99,,,0.00,Acu-Link.com,2013-03-12 13:39:00,
2013-03-12 06:55:00,48.7,42.8,29.97,NNE,22,2.2,-999.0,80,-99.99,,,0.00,Acu-Link.com,2013-03-12 13:55:00,
2013-03-12 07:10:00,47.8,42.6,29.98,ENE,67,0.0,-999.0,82,-99.99,,,0.00,Acu-Link.com,2013-03-12 14:10:00,
2013-03-12 07:25:00,46.8,42.8,29.98,NE,45,0.0,-999.0,86,-99.99,,,0.00,Acu-Link.com,2013-03-12 14:25:00,
2013-03-12 07:40:00,46.4,43.0,29.99,ENE,67,0.0,-999.0,88,-99.99,,,0.00,Acu-Link.com,2013-03-12 14:40:00,
2013-03-12 07:55:00,46.8,42.8,29.99,NE,45,0.0,-999.0,86,-99.99,,,0.00,Acu-Link.com,2013-03-12 14:55:00,
2013-03-12 08:11:00,48.6,44.0,30.00,NE,45,2.7,-999.0,84,-99.99,,,0.00,Acu-Link.com,2013-03-12 15:11:00,
2013-03-12 08:42:00,56.5,44.9,30.01,NE,45,1.1,-999.0,65,-99.99,,,0.00,Acu-Link.com,2013-03-12 15:42:00,
2013-03-12 08:57:00,61.7,46.3,30.01,ESE,112,0.0,-999.0,57,-99.99,,,0.00,Acu-Link.com,2013-03-12 15:57:00,
2013-03-12 09:12:00,65.3,46.7,30.02,SW,225,2.7,-999.0,51,-99.99,,,0.00,Acu-Link.com,2013-03-12 16:12:00,
2013-03-12 09:27:00,64.8,47.3,30.03,NE,45,0.0,-999.0,53,-99.99,,,0.00,Acu-Link.com,2013-03-12 16:27:00,
2013-03-12 09:42:00,69.6,47.9,30.02,WNW,292,0.0,-999.0,46,-99.99,,,0.00,Acu-Link.com,2013-03-12 16:42:00,
2013-03-12 09:58:00,72.5,48.7,30.02,NNW,337,3.2,-999.0,43,-99.99,,,0.00,Acu-Link.com,2013-03-12 16:58:00,
2013-03-12 10:13:00,71.4,48.9,30.03,WNW,292,0.0,-999.0,45,-99.99,,,0.00,Acu-Link.com,2013-03-12 17:13:00,
2013-03-12 10:28:00,74.7,49.4,30.02,NNE,22,0.0,-999.0,41,-99.99,,,0.00,Acu-Link.com,2013-03-12 17:28:00,
2013-03-12 10:43:00,77.9,50.9,30.02,NNE,22,0.0,-999.0,39,-99.99,,,0.00,Acu-Link.com,2013-03-12 17:43:00,
2013-03-12 10:58:00,78.1,50.4,30.02,ESE,112,1.1,-999.0,38,-99.99,,,0.00,Acu-Link.com,2013-03-12 17:58:00,
2013-03-12 11:14:00,78.8,51.0,30.02,NNE,22,2.7,-999.0,38,-99.99,,,0.00,Acu-Link.com,2013-03-12 18:14:00,
2013-03-12 11:29:00,78.8,51.7,30.02,ENE,67,1.7,-999.0,39,-99.99,,,0.00,Acu-Link.com,2013-03-12 18:29:00,
2013-03-12 11:44:00,80.6,51.2,30.02,SW,225,0.0,-999.0,36,-99.99,,,0.00,Acu-Link.com,2013-03-12 18:44:00,
2013-03-12 11:59:00,83.5,49.7,30.02,ENE,67,4.7,-999.0,31,-99.99,,,0.00,Acu-Link.com,2013-03-12 18:59:00,
2013-03-12 12:15:00,83.1,50.2,30.03,NNE,22,1.7,-999.0,32,-99.99,,,0.00,Acu-Link.com,2013-03-12 19:15:00,
2013-03-12 12:30:00,84.9,49.1,30.02,SSW,202,0.0,-999.0,29,-99.99,,,0.00,Acu-Link.com,2013-03-12 19:30:00,
2013-03-12 12:45:00,85.3,47.5,30.01,NE,45,5.3,-999.0,27,-99.99,,,0.00,Acu-Link.com,2013-03-12 19:45:00,
2013-03-12 13:00:00,84.7,49.8,30.01,NW,315,0.0,-999.0,30,-99.99,,,0.00,Acu-Link.com,2013-03-12 20:00:00,
2013-03-12 13:15:00,86.0,51.8,30.00,NW,315,1.1,-999.0,31,-99.99,,,0.00,Acu-Link.com,2013-03-12 20:15:00,
2013-03-12 13:31:00,84.7,51.5,29.99,West,270,4.2,-999.0,32,-99.99,,,0.00,Acu-Link.com,2013-03-12 20:31:00,
2013-03-12 14:01:00,82.8,53.1,29.98,SSW,202,4.2,-999.0,36,-99.99,,,0.00,Acu-Link.com,2013-03-12 21:01:00,
2013-03-12 14:16:00,84.6,53.1,29.97,SSW,202,1.7,-999.0,34,-99.99,,,0.00,Acu-Link.com,2013-03-12 21:16:00,
2013-03-12 14:47:00,78.8,51.7,29.96,SW,225,6.3,-999.0,39,-99.99,,,0.00,Acu-Link.com,2013-03-12 21:47:00,
2013-03-12 15:02:00,78.3,51.3,29.96,NNW,337,6.3,-999.0,39,-99.99,,,0.00,Acu-Link.com,2013-03-12 22:02:00,
2013-03-12 15:17:00,78.6,50.8,29.96,SE,135,4.7,-999.0,38,-99.99,,,0.00,Acu-Link.com,2013-03-12 22:17:00,
2013-03-12 15:33:00,77.0,50.1,29.95,SSW,202,10.4,-999.0,39,-99.99,,,0.00,Acu-Link.com,2013-03-12 22:33:00,
2013-03-12 15:48:00,78.3,50.6,29.95,WSW,247,12.5,-999.0,38,-99.99,,,0.00,Acu-Link.com,2013-03-12 22:48:00,
2013-03-12 16:03:00,78.8,51.0,29.96,West,270,7.3,-999.0,38,-99.99,,,0.00,Acu-Link.com,2013-03-12 23:03:00,
2013-03-12 16:18:00,77.9,50.2,29.95,West,270,10.9,-999.0,38,-99.99,,,0.00,Acu-Link.com,2013-03-12 23:18:00,
2013-03-12 16:34:00,76.3,49.5,29.95,West,270,8.9,-999.0,39,-99.99,,,0.00,Acu-Link.com,2013-03-12 23:34:00,
2013-03-12 16:50:00,75.6,50.2,29.95,South,180,9.4,-999.0,41,-99.99,,,0.00,Acu-Link.com,2013-03-12 23:50:00,
2013-03-12 17:05:00,73.2,48.1,29.95,West,270,9.9,-999.0,41,-99.99,,,0.00,Acu-Link.com,2013-03-13 00:05:00,
2013-03-12 17:20:00,72.0,48.3,29.94,West,270,10.4,-999.0,43,-99.99,,,0.00,Acu-Link.com,2013-03-13 00:20:00,
2013-03-12 17:35:00,72.1,49.6,29.95,South,180,6.8,-999.0,45,-99.99,,,0.00,Acu-Link.com,2013-03-13 00:35:00,
2013-03-12 17:50:00,71.6,50.3,29.94,West,270,4.2,-999.0,47,-99.99,,,0.00,Acu-Link.com,2013-03-13 00:50:00,
2013-03-12 18:06:00,69.3,49.9,29.94,West,270,8.3,-999.0,50,-99.99,,,0.00,Acu-Link.com,2013-03-13 01:06:00,
2013-03-12 18:36:00,67.3,49.1,29.94,West,270,9.9,-999.0,52,-99.99,,,0.00,Acu-Link.com,2013-03-13 01:36:00,
2013-03-12 19:06:00,64.9,47.4,29.95,WSW,247,10.4,-999.0,53,-99.99,,,0.00,Acu-Link.com,2013-03-13 02:06:00,
2013-03-12 19:37:00,64.0,47.0,29.95,West,270,8.9,-999.0,54,-99.99,,,0.00,Acu-Link.com,2013-03-13 02:37:00,
2013-03-12 19:52:00,63.0,46.6,29.96,WSW,247,8.9,-999.0,55,-99.99,,,0.00,Acu-Link.com,2013-03-13 02:52:00,
2013-03-12 20:07:00,62.1,46.7,29.96,WSW,247,7.3,-999.0,57,-99.99,,,0.00,Acu-Link.com,2013-03-13 03:07:00,
2013-03-12 20:23:00,62.2,46.3,29.97,West,270,7.8,-999.0,56,-99.99,,,0.00,Acu-Link.com,2013-03-13 03:23:00,
2013-03-12 20:38:00,62.2,46.3,29.97,SW,225,6.3,-999.0,56,-99.99,,,0.00,Acu-Link.com,2013-03-13 03:38:00,
2013-03-12 20:53:00,62.1,46.2,29.97,West,270,4.7,-999.0,56,-99.99,,,0.00,Acu-Link.com,2013-03-13 03:53:00,
2013-03-12 21:08:00,62.2,45.8,29.97,West,270,5.8,-999.0,55,-99.99,,,0.00,Acu-Link.com,2013-03-13 04:08:00,
2013-03-12 21:24:00,61.9,45.6,29.97,West,270,4.7,-999.0,55,-99.99,,,0.00,Acu-Link.com,2013-03-13 04:24:00,
2013-03-12 21:39:00,62.2,44.9,29.97,West,270,4.7,-999.0,53,-99.99,,,0.00,Acu-Link.com,2013-03-13 04:39:00,
2013-03-12 21:54:00,61.7,44.9,29.98,West,270,2.2,-999.0,54,-99.99,,,0.00,Acu-Link.com,2013-03-13 04:54:00,
2013-03-12 22:09:00,60.3,45.9,29.98,South,180,2.2,-999.0,59,-99.99,,,0.00,Acu-Link.com,2013-03-13 05:09:00,
2013-03-12 22:25:00,59.7,45.8,29.97,WSW,247,0.0,-999.0,60,-99.99,,,0.00,Acu-Link.com,2013-03-13 05:25:00,
2013-03-12 22:40:00,60.1,45.3,29.98,West,270,2.2,-999.0,58,-99.99,,,0.00,Acu-Link.com,2013-03-13 05:40:00,
2013-03-12 22:55:00,59.5,45.6,29.99,West,270,2.2,-999.0,60,-99.99,,,0.00,Acu-Link.com,2013-03-13 05:55:00,
2013-03-12 23:10:00,58.8,46.2,29.99,West,270,4.2,-999.0,63,-99.99,,,0.00,Acu-Link.com,2013-03-13 06:10:00,
2013-03-12 23:26:00,56.8,46.7,30.00,West,270,4.7,-999.0,69,-99.99,,,0.00,Acu-Link.com,2013-03-13 06:26:00,
2013-03-12 23:56:00,57.2,47.5,29.99,West,270,3.7,-999.0,70,-99.99,,,0.00,Acu-Link.com,2013-03-13 06:56:00,